createdAt,value
2018-09-08T00:02:08.078Z,14.50
2018-09-08T00:04:36.502Z,14.50
2018-09-08T00:07:10.347Z,14.40
2018-09-08T00:09:38.776Z,14.50
2018-09-08T00:12:07.230Z,14.40
2018-09-08T00:14:34.846Z,14.40
2018-09-08T00:17:08.419Z,14.30
2018-09-08T00:19:42.179Z,14.30
2018-09-08T00:22:15.903Z,14.30
2018-09-08T00:24:50.154Z,14.40
2018-09-08T00:27:22.835Z,14.40
2018-09-08T00:29:51.619Z,14.40
2018-09-08T00:32:21.330Z,14.40
2018-09-08T00:34:49.711Z,14.40
2018-09-08T00:37:18.199Z,14.40
2018-09-08T00:39:50.538Z,14.40
2018-09-08T00:42:18.898Z,14.40
2018-09-08T00:44:47.279Z,14.40
2018-09-08T00:47:15.851Z,14.40
2018-09-08T00:49:44.340Z,14.40
2018-09-08T00:52:12.692Z,14.40
2018-09-08T00:54:41.054Z,14.40
2018-09-08T00:57:09.535Z,14.30
2018-09-08T00:59:37.938Z,14.40
2018-09-08T01:02:06.326Z,14.40
2018-09-08T01:04:38.651Z,14.40
2018-09-08T01:07:11.302Z,14.40
2018-09-08T01:09:39.744Z,14.50
2018-09-08T01:12:08.106Z,14.50
2018-09-08T01:14:36.550Z,14.50
2018-09-08T01:17:04.947Z,14.40
2018-09-08T01:19:33.338Z,14.40
2018-09-08T01:22:01.759Z,14.40
2018-09-08T01:24:30.158Z,14.50
2018-09-08T01:26:58.542Z,14.40
2018-09-08T01:29:26.958Z,14.40
2018-09-08T01:31:55.310Z,14.40
2018-09-08T01:34:23.719Z,14.40
2018-09-08T01:36:52.160Z,14.40
2018-09-08T01:39:20.618Z,14.30
2018-09-08T01:41:48.994Z,14.30
2018-09-08T01:44:17.375Z,14.30
2018-09-08T01:46:45.754Z,14.30
2018-09-08T01:49:14.194Z,14.30
2018-09-08T01:51:42.638Z,14.30
2018-09-08T01:54:11.039Z,14.30
2018-09-08T01:56:39.402Z,14.20
2018-09-08T01:59:07.927Z,14.30
2018-09-08T02:01:36.339Z,14.20
2018-09-08T02:04:04.850Z,14.10
2018-09-08T02:06:33.218Z,14.10
2018-09-08T02:09:01.655Z,14.10
2018-09-08T02:11:30.087Z,14.00
2018-09-08T02:13:58.451Z,14.10
2018-09-08T02:16:26.886Z,14.00
2018-09-08T02:18:55.291Z,14.00
2018-09-08T02:21:23.688Z,14.00
2018-09-08T02:23:52.078Z,13.90
2018-09-08T02:26:20.471Z,13.80
2018-09-08T02:28:48.911Z,13.80
2018-09-08T02:31:17.494Z,13.80
2018-09-08T02:33:45.903Z,13.80
2018-09-08T02:36:14.322Z,13.80
2018-09-08T02:38:42.706Z,13.80
2018-09-08T02:41:11.111Z,13.80
2018-09-08T02:43:39.490Z,13.80
2018-09-08T02:46:07.878Z,13.80
2018-09-08T02:48:36.242Z,13.80
2018-09-08T02:51:03.567Z,13.80
2018-09-08T02:53:30.890Z,13.70
2018-09-08T02:55:58.207Z,13.70
2018-09-08T02:58:25.507Z,13.60
2018-09-08T03:00:52.823Z,13.50
2018-09-08T03:03:20.114Z,13.50
2018-09-08T03:05:47.436Z,13.50
2018-09-08T03:08:14.755Z,13.50
2018-09-08T03:10:42.075Z,13.40
2018-09-08T03:13:09.379Z,13.40
2018-09-08T03:15:36.703Z,13.40
2018-09-08T03:18:04.010Z,13.30
2018-09-08T03:20:31.326Z,13.30
2018-09-08T03:22:58.628Z,13.20
2018-09-08T03:25:25.961Z,13.30
2018-09-08T03:27:53.423Z,13.20
2018-09-08T03:30:20.726Z,13.20
2018-09-08T03:32:48.044Z,13.10
2018-09-08T03:35:15.363Z,13.00
2018-09-08T03:37:42.706Z,13.10
2018-09-08T03:40:10.019Z,13.00
2018-09-08T03:42:37.334Z,12.90
2018-09-08T03:45:04.643Z,13.00
2018-09-08T03:47:31.969Z,12.90
2018-09-08T03:49:59.282Z,12.90
2018-09-08T03:52:26.598Z,12.90
2018-09-08T03:54:53.898Z,12.90
2018-09-08T03:57:21.231Z,12.80
2018-09-08T03:59:48.560Z,12.80
2018-09-08T04:02:15.906Z,12.90
2018-09-08T04:04:44.280Z,12.90
2018-09-08T04:07:12.662Z,12.90
2018-09-08T04:09:41.047Z,12.90
2018-09-08T04:12:09.434Z,12.90
2018-09-08T04:14:37.819Z,12.90
2018-09-08T04:17:06.230Z,12.90
2018-09-08T04:19:34.619Z,12.90
2018-09-08T04:22:03.001Z,13.00
2018-09-08T04:24:31.363Z,12.90
2018-09-08T04:26:59.742Z,12.80
2018-09-08T04:29:28.140Z,12.80
2018-09-08T04:31:56.523Z,12.70
2018-09-08T04:34:24.899Z,12.60
2018-09-08T04:36:53.290Z,12.60
2018-09-08T04:39:21.694Z,12.60
2018-09-08T04:41:50.083Z,12.50
2018-09-08T04:44:18.486Z,12.40
2018-09-08T04:46:46.852Z,12.40
2018-09-08T04:49:15.258Z,12.30
2018-09-08T04:51:43.612Z,12.20
2018-09-08T04:54:12.001Z,12.20
2018-09-08T04:56:40.367Z,12.10
2018-09-08T04:59:08.771Z,12.10
2018-09-08T05:01:37.175Z,12.10
2018-09-08T05:04:05.559Z,12.10
2018-09-08T05:06:33.927Z,12.10
2018-09-08T05:09:02.374Z,12.20
2018-09-08T05:11:30.723Z,12.20
2018-09-08T05:13:59.107Z,12.40
2018-09-08T05:16:27.482Z,12.50
2018-09-08T05:18:55.899Z,12.60
2018-09-08T05:21:24.302Z,12.60
2018-09-08T05:23:52.691Z,12.70
2018-09-08T05:26:21.062Z,12.80
2018-09-08T05:28:49.458Z,12.90
2018-09-08T05:31:17.823Z,13.00
2018-09-08T05:33:46.222Z,13.10
2018-09-08T05:36:14.610Z,13.20
2018-09-08T05:38:42.996Z,13.30
2018-09-08T05:41:11.376Z,13.30
2018-09-08T05:43:39.755Z,13.40
2018-09-08T05:46:08.120Z,13.50
2018-09-08T05:48:36.503Z,13.60
2018-09-08T05:51:04.875Z,13.60
2018-09-08T05:53:33.445Z,13.70
2018-09-08T05:56:01.804Z,13.70
2018-09-08T05:58:30.227Z,13.80
2018-09-08T06:00:58.580Z,13.80
2018-09-08T06:03:26.969Z,13.90
2018-09-08T06:05:55.335Z,14.00
2018-09-08T06:08:23.726Z,14.00
2018-09-08T06:10:52.098Z,14.10
2018-09-08T06:13:20.482Z,14.10
2018-09-08T06:15:48.850Z,14.20
2018-09-08T06:18:17.279Z,14.30
2018-09-08T06:20:45.628Z,14.40
2018-09-08T06:23:14.030Z,14.50
2018-09-08T06:25:42.437Z,14.60
2018-09-08T06:28:10.818Z,14.60
2018-09-08T06:30:39.190Z,14.60
2018-09-08T06:33:07.575Z,14.70
2018-09-08T06:35:35.959Z,14.60
2018-09-08T06:38:04.358Z,14.60
2018-09-08T06:40:32.735Z,14.70
2018-09-08T06:43:01.118Z,14.80
2018-09-08T06:45:29.499Z,14.80
2018-09-08T06:47:57.875Z,15.00
2018-09-08T06:50:26.267Z,15.10
2018-09-08T06:52:54.654Z,15.10
2018-09-08T06:55:23.035Z,15.20
2018-09-08T06:57:51.447Z,15.30
2018-09-08T07:00:19.878Z,15.20
2018-09-08T07:02:48.256Z,15.40
2018-09-08T07:05:16.630Z,15.40
2018-09-08T07:07:45.011Z,15.50
2018-09-08T07:10:13.392Z,15.30
2018-09-08T07:12:41.746Z,15.40
2018-09-08T07:15:10.161Z,15.60
2018-09-08T07:17:38.542Z,15.40
2018-09-08T07:20:07.344Z,15.50
2018-09-08T07:22:35.710Z,15.50
2018-09-08T07:25:04.251Z,15.70
2018-09-08T07:27:32.559Z,15.80
2018-09-08T07:30:00.939Z,15.90
2018-09-08T07:32:29.341Z,15.90
2018-09-08T07:34:57.754Z,15.90
2018-09-08T07:37:26.207Z,15.90
2018-09-08T07:39:54.556Z,16.00
2018-09-08T07:42:22.963Z,16.10
2018-09-08T07:44:51.412Z,16.10
2018-09-08T07:47:19.778Z,16.20
2018-09-08T07:49:48.173Z,16.20
2018-09-08T07:52:16.552Z,16.00
2018-09-08T07:54:44.931Z,16.00
2018-09-08T07:57:13.337Z,16.10
2018-09-08T07:59:41.727Z,16.30
2018-09-08T08:02:10.099Z,16.20
2018-09-08T08:04:38.499Z,16.10
2018-09-08T08:07:11.118Z,16.40
2018-09-08T08:09:39.534Z,16.30
2018-09-08T08:12:07.908Z,16.40
2018-09-08T08:14:36.308Z,16.40
2018-09-08T08:17:04.682Z,16.30
2018-09-08T08:19:33.359Z,16.40
2018-09-08T08:22:01.732Z,16.60
2018-09-08T08:24:30.129Z,16.80
2018-09-08T08:26:58.983Z,16.80
2018-09-08T08:29:27.357Z,16.70
2018-09-08T08:31:56.071Z,16.60
2018-09-08T08:34:24.487Z,16.70
2018-09-08T08:36:52.999Z,16.80
2018-09-08T08:39:21.388Z,16.80
2018-09-08T08:41:49.762Z,17.00
2018-09-08T08:44:18.135Z,17.00
2018-09-08T08:46:46.548Z,17.10
2018-09-08T08:49:14.946Z,17.10
2018-09-08T08:51:54.611Z,17.20
2018-09-08T08:54:33.766Z,17.40
2018-09-08T08:57:02.219Z,17.40
2018-09-08T08:59:30.615Z,17.60
2018-09-08T09:01:58.998Z,17.50
2018-09-08T09:04:27.373Z,17.80
2018-09-08T09:06:55.779Z,17.90
2018-09-08T09:09:24.155Z,18.10
2018-09-08T09:11:53.864Z,18.00
2018-09-08T09:14:21.845Z,17.60
2018-09-08T09:16:50.279Z,17.90
2018-09-08T09:19:40.388Z,17.80
2018-09-08T09:22:21.319Z,17.90
2018-09-08T09:24:57.969Z,18.00
2018-09-08T09:27:26.890Z,18.00
2018-09-08T09:29:55.674Z,18.00
2018-09-08T09:32:24.120Z,18.10
2018-09-08T09:34:52.570Z,18.20
2018-09-08T09:37:21.074Z,18.40
2018-09-08T09:39:49.975Z,18.30
2018-09-08T09:42:18.388Z,18.40
2018-09-08T09:44:46.817Z,18.60
2018-09-08T09:47:15.247Z,18.70
2018-09-08T09:49:43.643Z,18.60
2018-09-08T09:52:12.069Z,18.60
2018-09-08T09:54:40.462Z,18.70
2018-09-08T09:57:08.908Z,18.80
2018-09-08T09:59:37.307Z,18.90
2018-09-08T10:02:09.139Z,19.20
2018-09-08T10:04:37.526Z,19.40
2018-09-08T10:07:09.449Z,19.30
2018-09-08T10:09:39.791Z,19.20
2018-09-08T10:12:08.247Z,19.20
2018-09-08T10:14:36.634Z,19.50
2018-09-08T10:17:05.128Z,19.40
2018-09-08T10:19:33.530Z,19.80
2018-09-08T10:22:01.943Z,19.50
2018-09-08T10:24:30.339Z,19.70
2018-09-08T10:26:58.747Z,19.70
2018-09-08T10:29:27.215Z,19.40
2018-09-08T10:31:55.650Z,19.40
2018-09-08T10:34:24.062Z,19.50
2018-09-08T10:36:52.492Z,19.80
2018-09-08T10:39:20.896Z,19.80
2018-09-08T10:41:49.306Z,19.60
2018-09-08T10:44:17.716Z,19.40
2018-09-08T10:46:46.114Z,19.30
2018-09-08T10:49:14.543Z,19.60
2018-09-08T10:51:49.591Z,19.90
2018-09-08T10:54:18.178Z,19.90
2018-09-08T10:56:46.598Z,19.70
2018-09-08T10:59:15.000Z,20.00
2018-09-08T11:01:43.509Z,19.90
2018-09-08T11:04:11.859Z,19.90
2018-09-08T11:06:40.262Z,19.80
2018-09-08T11:09:08.694Z,19.60
2018-09-08T11:11:37.108Z,19.80
2018-09-08T11:14:05.519Z,20.10
2018-09-08T11:16:33.948Z,20.20
2018-09-08T11:19:02.373Z,20.50
2018-09-08T11:21:30.789Z,20.50
2018-09-08T11:23:59.218Z,20.60
2018-09-08T11:26:27.625Z,20.30
2018-09-08T11:28:56.031Z,20.30
2018-09-08T11:31:24.434Z,20.50
2018-09-08T11:33:52.834Z,20.30
2018-09-08T11:36:21.240Z,20.40
2018-09-08T11:38:49.919Z,20.50
2018-09-08T11:41:18.320Z,20.30
2018-09-08T11:43:46.722Z,20.30
2018-09-08T11:46:15.091Z,20.70
2018-09-08T11:48:43.524Z,21.00
2018-09-08T11:51:11.938Z,21.00
2018-09-08T11:53:40.554Z,21.10
2018-09-08T11:56:08.923Z,21.20
2018-09-08T11:58:37.338Z,21.30
2018-09-08T12:01:05.848Z,20.90
2018-09-08T12:03:34.266Z,20.90
2018-09-08T12:06:02.704Z,21.00
2018-09-08T12:08:31.495Z,20.80
2018-09-08T12:10:59.907Z,20.70
2018-09-08T12:13:28.343Z,21.20
2018-09-08T12:15:56.791Z,21.30
2018-09-08T12:18:25.219Z,21.40
2018-09-08T12:20:53.591Z,21.60
2018-09-08T12:23:22.770Z,21.60
2018-09-08T12:25:51.447Z,21.70
2018-09-08T12:28:20.183Z,21.50
2018-09-08T12:30:48.625Z,21.50
2018-09-08T12:33:16.999Z,21.60
2018-09-08T12:35:45.517Z,21.50
2018-09-08T12:38:13.939Z,21.50
2018-09-08T12:40:42.407Z,21.60
2018-09-08T12:43:10.891Z,21.70
2018-09-08T12:45:39.308Z,21.30
2018-09-08T12:48:07.751Z,21.60
2018-09-08T12:50:36.153Z,21.70
2018-09-08T12:53:04.567Z,21.80
2018-09-08T12:55:33.363Z,21.70
2018-09-08T12:58:01.835Z,21.90
2018-09-08T13:00:30.302Z,21.70
2018-09-08T13:02:58.707Z,22.10
2018-09-08T13:05:27.099Z,22.00
2018-09-08T13:07:55.514Z,22.20
2018-09-08T13:10:23.883Z,22.30
2018-09-08T13:12:52.281Z,22.20
2018-09-08T13:15:20.889Z,22.20
2018-09-08T13:17:49.279Z,22.00
2018-09-08T13:20:17.676Z,22.10
2018-09-08T13:22:46.067Z,22.30
2018-09-08T13:25:14.467Z,22.10
2018-09-08T13:27:42.860Z,22.20
2018-09-08T13:30:11.261Z,22.10
2018-09-08T13:32:39.640Z,22.30
2018-09-08T13:35:08.210Z,22.20
2018-09-08T13:37:36.626Z,22.20
2018-09-08T13:40:05.235Z,22.40
2018-09-08T13:42:33.703Z,22.50
2018-09-08T13:45:02.120Z,22.70
2018-09-08T13:47:30.543Z,22.80
2018-09-08T13:49:59.015Z,22.90
2018-09-08T13:52:27.391Z,22.50
2018-09-08T13:54:55.819Z,22.60
2018-09-08T13:57:24.251Z,22.60
2018-09-08T13:59:52.671Z,22.60
2018-09-08T14:02:21.055Z,22.50
2018-09-08T14:04:49.486Z,22.50
2018-09-08T14:07:17.935Z,22.30
2018-09-08T14:09:46.390Z,22.50
2018-09-08T14:12:14.783Z,22.70
2018-09-08T14:14:43.215Z,22.50
2018-09-08T14:17:11.647Z,22.40
2018-09-08T14:19:40.090Z,22.30
2018-09-08T14:22:08.499Z,22.20
2018-09-08T14:24:36.923Z,22.20
2018-09-08T14:27:05.358Z,22.10
2018-09-08T14:29:33.785Z,22.30
2018-09-08T14:32:02.187Z,22.30
2018-09-08T14:34:30.608Z,22.30
2018-09-08T14:36:59.011Z,22.30
2018-09-08T14:39:27.422Z,22.10
2018-09-08T14:41:55.800Z,22.20
2018-09-08T14:44:24.189Z,22.10
2018-09-08T14:46:52.598Z,22.00
2018-09-08T14:49:20.972Z,22.00
2018-09-08T14:51:49.384Z,22.00
2018-09-08T14:54:17.811Z,22.20
2018-09-08T14:56:46.369Z,22.40
2018-09-08T14:59:14.618Z,22.40
2018-09-08T15:01:43.059Z,22.30
2018-09-08T15:04:11.423Z,22.40
2018-09-08T15:06:40.043Z,22.40
2018-09-08T15:09:08.526Z,22.30
2018-09-08T15:11:36.952Z,22.30
2018-09-08T15:14:05.369Z,22.20
2018-09-08T15:16:33.800Z,22.30
2018-09-08T15:19:02.209Z,22.40
2018-09-08T15:21:30.608Z,22.30
2018-09-08T15:23:58.975Z,22.30
2018-09-08T15:26:27.376Z,22.30
2018-09-08T15:28:55.848Z,22.20
2018-09-08T15:31:24.249Z,22.20
2018-09-08T15:33:52.623Z,22.20
2018-09-08T15:36:21.071Z,22.10
2018-09-08T15:38:49.801Z,22.20
2018-09-08T15:41:18.226Z,22.20
2018-09-08T15:43:46.597Z,22.20
2018-09-08T15:46:15.027Z,22.20
2018-09-08T15:48:43.420Z,22.20
2018-09-08T15:51:11.815Z,22.10
2018-09-08T15:53:40.243Z,22.00
2018-09-08T15:56:08.650Z,22.10
2018-09-08T15:58:37.183Z,22.10
2018-09-08T16:01:05.496Z,22.00
2018-09-08T16:03:33.928Z,22.10
2018-09-08T16:06:02.403Z,22.10
2018-09-08T16:08:30.787Z,21.90
2018-09-08T16:10:59.276Z,21.90
2018-09-08T16:13:27.675Z,21.90
2018-09-08T16:15:56.059Z,21.90
2018-09-08T16:18:24.731Z,22.00
2018-09-08T16:20:53.103Z,22.00
2018-09-08T16:23:21.500Z,21.90
2018-09-08T16:25:49.875Z,21.90
2018-09-08T16:28:18.275Z,21.80
2018-09-08T16:30:46.675Z,21.90
2018-09-08T16:33:15.090Z,21.80
2018-09-08T16:35:43.458Z,21.70
2018-09-08T16:38:11.883Z,21.80
2018-09-08T16:40:40.263Z,21.80
2018-09-08T16:43:08.658Z,21.80
2018-09-08T16:45:37.122Z,21.70
2018-09-08T16:48:05.839Z,21.70
2018-09-08T16:50:34.207Z,21.50
2018-09-08T16:53:02.669Z,21.60
2018-09-08T16:55:31.055Z,21.50
2018-09-08T16:57:59.555Z,21.40
2018-09-08T17:00:27.957Z,21.40
2018-09-08T17:02:56.304Z,21.30
2018-09-08T17:05:24.754Z,21.30
2018-09-08T17:07:53.102Z,21.30
2018-09-08T17:10:21.479Z,21.20
2018-09-08T17:12:49.894Z,21.20
2018-09-08T17:15:18.305Z,21.00
2018-09-08T17:17:46.695Z,21.00
2018-09-08T17:20:15.066Z,20.90
2018-09-08T17:22:43.560Z,20.90
2018-09-08T17:25:12.272Z,20.80
2018-09-08T17:27:40.682Z,20.70
2018-09-08T17:30:09.051Z,20.70
2018-09-08T17:32:37.471Z,20.70
2018-09-08T17:35:05.893Z,20.50
2018-09-08T17:37:34.307Z,20.50
2018-09-08T17:40:02.694Z,20.50
2018-09-08T17:42:31.077Z,20.40
2018-09-08T17:44:59.471Z,20.40
2018-09-08T17:47:27.945Z,20.30
2018-09-08T17:49:56.331Z,20.30
2018-09-08T17:52:24.744Z,20.20
2018-09-08T17:54:53.167Z,20.10
2018-09-08T17:57:21.611Z,20.10
2018-09-08T17:59:50.025Z,20.00
2018-09-08T18:02:18.439Z,20.00
2018-09-08T18:04:46.906Z,19.90
2018-09-08T18:07:16.816Z,20.00
2018-09-08T18:09:45.315Z,19.80
2018-09-08T18:12:13.713Z,19.80
2018-09-08T18:14:42.397Z,19.70
2018-09-08T18:17:11.406Z,19.70
2018-09-08T18:19:39.792Z,19.60
2018-09-08T18:22:08.293Z,19.50
2018-09-08T18:24:36.716Z,19.40
2018-09-08T18:27:05.136Z,19.40
2018-09-08T18:29:33.559Z,19.40
2018-09-08T18:32:01.960Z,19.20
2018-09-08T18:34:30.400Z,19.20
2018-09-08T18:36:58.946Z,19.20
2018-09-08T18:39:27.320Z,19.10
2018-09-08T18:41:55.781Z,19.00
2018-09-08T18:44:24.224Z,19.00
2018-09-08T18:46:52.636Z,18.90
2018-09-08T18:49:21.099Z,18.90
2018-09-08T18:51:49.535Z,18.90
2018-09-08T18:54:17.954Z,18.80
2018-09-08T18:56:46.382Z,18.70
2018-09-08T18:59:14.833Z,18.70
2018-09-08T19:01:43.261Z,18.60
2018-09-08T19:04:11.698Z,18.50
2018-09-08T19:06:40.167Z,18.40
2018-09-08T19:09:08.727Z,18.30
2018-09-08T19:11:37.227Z,18.30
2018-09-08T19:14:05.796Z,18.20
2018-09-08T19:16:34.323Z,18.20
2018-09-08T19:19:02.857Z,18.20
2018-09-08T19:21:31.341Z,18.20
2018-09-08T19:24:05.174Z,18.20
2018-09-08T19:26:33.683Z,18.30
2018-09-08T19:29:07.394Z,18.20
2018-09-08T19:31:35.914Z,18.20
2018-09-08T19:34:04.445Z,18.10
2018-09-08T19:36:32.908Z,18.10
2018-09-08T19:39:02.168Z,18.00
2018-09-08T19:41:31.422Z,18.00
2018-09-08T19:44:00.534Z,18.00
2018-09-08T19:46:34.353Z,18.00
2018-09-08T19:49:02.779Z,17.90
2018-09-08T19:51:31.223Z,17.90
2018-09-08T19:54:00.189Z,17.90
2018-09-08T19:56:34.004Z,17.80
2018-09-08T19:59:02.494Z,17.90
2018-09-08T20:01:31.492Z,17.70
2018-09-08T20:03:59.972Z,17.60
2018-09-08T20:06:28.421Z,17.50
2018-09-08T20:08:56.889Z,17.40
2018-09-08T20:11:25.346Z,17.30
2018-09-08T20:13:53.784Z,17.20
2018-09-08T20:16:22.236Z,17.20
2018-09-08T20:18:50.647Z,17.20
2018-09-08T20:21:19.163Z,17.10
2018-09-08T20:23:47.608Z,17.10
2018-09-08T20:26:16.064Z,17.00
2018-09-08T20:28:44.573Z,16.90
2018-09-08T20:31:13.024Z,16.90
2018-09-08T20:33:41.511Z,16.90
2018-09-08T20:36:10.042Z,16.80
2018-09-08T20:38:38.509Z,16.80
2018-09-08T20:41:07.174Z,16.80
2018-09-08T20:43:35.637Z,16.70
2018-09-08T20:46:04.117Z,16.70
2018-09-08T20:48:32.555Z,16.60
2018-09-08T20:51:01.041Z,16.60
2018-09-08T20:53:29.505Z,16.50
2018-09-08T20:55:57.972Z,16.50
2018-09-08T20:58:26.441Z,16.40
2018-09-08T21:00:54.941Z,16.40
2018-09-08T21:03:23.427Z,16.30
2018-09-08T21:05:51.894Z,16.30
2018-09-08T21:08:20.422Z,16.20
2018-09-08T21:10:48.874Z,16.20
2018-09-08T21:13:17.352Z,16.20
2018-09-08T21:15:45.815Z,16.10
2018-09-08T21:18:14.295Z,16.10
2018-09-08T21:20:42.808Z,16.10
2018-09-08T21:23:11.324Z,16.10
2018-09-08T21:25:39.810Z,16.10
2018-09-08T21:28:08.292Z,16.10
2018-09-08T21:30:36.821Z,16.10
2018-09-08T21:33:05.648Z,16.10
2018-09-08T21:35:34.137Z,16.10
2018-09-08T21:38:02.575Z,16.10
2018-09-08T21:40:31.008Z,16.10
2018-09-08T21:42:59.431Z,16.10
2018-09-08T21:45:27.852Z,16.10
2018-09-08T21:47:56.265Z,16.10
2018-09-08T21:50:24.690Z,16.10
2018-09-08T21:52:53.188Z,16.00
2018-09-08T21:55:21.616Z,15.80
2018-09-08T21:57:50.068Z,15.70
2018-09-08T22:00:18.541Z,15.50
2018-09-08T22:02:47.006Z,15.30
2018-09-08T22:05:15.475Z,15.30
2018-09-08T22:07:43.928Z,15.20
2018-09-08T22:10:12.359Z,15.00
2018-09-08T22:12:40.830Z,15.00
2018-09-08T22:15:09.274Z,15.00
2018-09-08T22:17:37.739Z,15.00
2018-09-08T22:20:06.264Z,15.00
2018-09-08T22:22:34.827Z,15.00
2018-09-08T22:25:03.394Z,15.00
2018-09-08T22:27:31.846Z,15.10
2018-09-08T22:30:00.303Z,15.00
2018-09-08T22:32:28.755Z,14.90
2018-09-08T22:34:57.288Z,14.80
2018-09-08T22:37:25.796Z,14.80
2018-09-08T22:39:54.403Z,14.80
2018-09-08T22:42:22.898Z,14.80
2018-09-08T22:44:51.438Z,14.80
2018-09-08T22:47:19.864Z,14.80
2018-09-08T22:49:48.347Z,14.80
2018-09-08T22:52:16.776Z,14.70
2018-09-08T22:54:45.270Z,14.60
2018-09-08T22:57:13.702Z,14.60
2018-09-08T22:59:42.256Z,14.60
2018-09-08T23:02:10.818Z,14.60
2018-09-08T23:04:39.411Z,14.60
2018-09-08T23:07:07.884Z,14.60
2018-09-08T23:09:36.325Z,14.60
2018-09-08T23:12:04.789Z,14.50
2018-09-08T23:14:33.229Z,14.50
2018-09-08T23:17:01.678Z,14.50
2018-09-08T23:19:30.101Z,14.60
2018-09-08T23:21:58.682Z,14.60
2018-09-08T23:24:27.227Z,14.40
2018-09-08T23:26:55.643Z,14.40
2018-09-08T23:29:24.095Z,14.20
2018-09-08T23:31:52.525Z,14.20
2018-09-08T23:34:20.951Z,14.20
2018-09-08T23:36:49.403Z,14.20
2018-09-08T23:39:17.813Z,14.30
2018-09-08T23:41:46.472Z,14.30
2018-09-08T23:44:14.888Z,14.30
2018-09-08T23:46:43.321Z,14.20
2018-09-08T23:49:11.733Z,14.20
2018-09-08T23:51:40.153Z,14.10
2018-09-08T23:54:08.599Z,14.00
2018-09-08T23:56:37.028Z,13.90
2018-09-08T23:59:05.684Z,13.90
